Time;durP1;ratioP1;P1;durP2;ratioP2;P2;SDS_P1;SDS_P2;PMS_P1;PMS_P2;Temp;Humidity;BMP_temperature;BMP_pressure;BME280_temperature;BME280_humidity;BME280_pressure;Samples;Min_cycle;Max_cycle;Signal;HPM_P1;HPM_P2
2022/01/02 00:01:35;;;;;;;15.57;5.18;;;;;;;;;;6273543;22;19999;-64
2022/01/02 00:04:02;;;;;;;21.20;4.88;;;;;;;;;;6275516;22;20000;-67
2022/01/02 00:06:31;;;;;;;16.00;4.72;;;;;;;;;;6273754;22;20007;-64
2022/01/02 00:09:02;;;;;;;27.52;5.10;;;;;;;;;;6273754;22;20057;-67
2022/01/02 00:11:28;;;;;;;21.58;5.93;;;;;;;;;;6274314;22;20071;-64
2022/01/02 00:13:56;;;;;;;13.65;5.10;;;;;;;;;;6275996;22;20022;-67
2022/01/02 00:16:22;;;;;;;22.15;6.05;;;;;;;;;;6274192;22;20011;-67
2022/01/02 00:19:04;;;;;;;19.88;4.70;;;;;;;;;;6273342;22;20424;-64
2022/01/02 00:21:32;;;;;;;31.42;5.43;;;;;;;;;;6273130;22;20000;-68
2022/01/02 00:24:05;;;;;;;20.85;6.53;;;;;;;;;;6274199;22;20023;-65
2022/01/02 00:26:42;;;;;;;17.38;4.15;;;;;;;;;;6272587;22;20506;-63
2022/01/02 00:29:08;;;;;;;23.77;5.25;;;;;;;;;;6275768;22;20007;-64
2022/01/02 00:31:35;;;;;;;18.80;4.20;;;;;;;;;;6272692;22;20265;-65
2022/01/02 00:34:01;;;;;;;21.50;5.03;;;;;;;;;;6274369;22;19995;-65
2022/01/02 00:36:27;;;;;;;20.42;5.00;;;;;;;;;;6272901;22;19999;-65
2022/01/02 00:38:54;;;;;;;20.98;6.78;;;;;;;;;;6275883;22;20057;-66
2022/01/02 00:41:27;;;;;;;24.75;5.03;;;;;;;;;;6272700;22;20004;-66
2022/01/02 00:44:13;;;;;;;23.15;4.80;;;;;;;;;;6273736;22;20011;-68
2022/01/02 00:46:46;;;;;;;21.55;6.00;;;;;;;;;;6273757;22;20079;-67
2022/01/02 00:49:15;;;;;;;19.67;4.90;;;;;;;;;;6273846;22;20334;-64
2022/01/02 00:51:46;;;;;;;21.83;6.28;;;;;;;;;;6273040;22;19999;-65
2022/01/02 00:54:15;;;;;;;24.33;5.47;;;;;;;;;;6274744;22;20082;-65
2022/01/02 00:56:43;;;;;;;18.77;4.90;;;;;;;;;;6271588;22;20103;-67
2022/01/02 00:59:15;;;;;;;18.98;4.18;;;;;;;;;;6272517;22;20038;-66
2022/01/02 01:01:42;;;;;;;12.88;4.68;;;;;;;;;;6273911;22;19996;-67
2022/01/02 01:04:11;;;;;;;14.55;4.10;;;;;;;;;;6274673;22;20023;-68
2022/01/02 01:06:39;;;;;;;20.63;4.55;;;;;;;;;;6274036;22;20016;-68
2022/01/02 01:09:05;;;;;;;18.63;4.45;;;;;;;;;;6272974;22;20004;-65
2022/01/02 01:11:32;;;;;;;15.50;5.25;;;;;;;;;;6273885;22;20403;-67
2022/01/02 01:13:59;;;;;;;13.45;3.53;;;;;;;;;;6273592;22;20008;-67
2022/01/02 01:16:25;;;;;;;19.77;4.97;;;;;;;;;;6274078;22;20000;-65
2022/01/02 01:18:51;;;;;;;19.65;5.20;;;;;;;;;;6273511;22;20090;-63
2022/01/02 01:21:17;;;;;;;24.50;5.97;;;;;;;;;;6273052;22;20014;-65
2022/01/02 01:23:43;;;;;;;18.90;4.78;;;;;;;;;;6273808;22;20034;-65
2022/01/02 01:26:11;;;;;;;19.05;6.40;;;;;;;;;;6274854;22;20004;-66
2022/01/02 01:28:37;;;;;;;15.00;4.28;;;;;;;;;;6273544;22;20010;-69
2022/01/02 01:31:04;;;;;;;24.65;5.53;;;;;;;;;;6274429;22;20307;-64
2022/01/02 01:33:30;;;;;;;20.70;5.68;;;;;;;;;;6273468;22;20106;-64
2022/01/02 01:35:57;;;;;;;15.55;5.00;;;;;;;;;;6275750;22;20083;-67
2022/01/02 01:38:24;;;;;;;19.27;4.00;;;;;;;;;;6274722;22;20434;-66
2022/01/02 01:40:53;;;;;;;17.92;5.10;;;;;;;;;;6276160;22;20010;-66
2022/01/02 01:43:23;;;;;;;18.38;5.70;;;;;;;;;;6275366;22;20379;-67
2022/01/02 01:45:49;;;;;;;20.63;5.22;;;;;;;;;;6276833;22;20003;-65
2022/01/02 01:48:15;;;;;;;18.95;4.63;;;;;;;;;;6274666;22;20092;-66
2022/01/02 01:50:42;;;;;;;23.95;5.05;;;;;;;;;;6276441;22;20062;-68
2022/01/02 01:53:09;;;;;;;20.08;4.22;;;;;;;;;;6275417;22;20023;-64
2022/01/02 01:55:36;;;;;;;20.08;5.43;;;;;;;;;;6276475;22;20012;-67
2022/01/02 01:58:03;;;;;;;18.77;4.82;;;;;;;;;;6275326;22;20004;-66
2022/01/02 02:00:29;;;;;;;24.42;5.72;;;;;;;;;;6277034;22;20065;-68
2022/01/02 02:02:56;;;;;;;25.85;6.18;;;;;;;;;;6275101;22;20059;-64
2022/01/02 02:05:22;;;;;;;18.40;4.88;;;;;;;;;;6274670;22;20073;-69
2022/01/02 02:07:48;;;;;;;21.48;6.35;;;;;;;;;;6273861;22;20004;-67
2022/01/02 02:10:18;;;;;;;26.80;5.15;;;;;;;;;;6274856;22;20440;-69
2022/01/02 02:12:46;;;;;;;23.10;4.28;;;;;;;;;;6274399;22;20000;-64
2022/01/02 02:15:14;;;;;;;17.65;4.55;;;;;;;;;;6273453;22;20075;-65
2022/01/02 02:17:41;;;;;;;24.20;5.05;;;;;;;;;;6273980;22;20004;-64
2022/01/02 02:20:18;;;;;;;19.38;4.72;;;;;;;;;;6272661;22;20007;-64
2022/01/02 02:22:46;;;;;;;15.93;3.67;;;;;;;;;;6274088;22;20003;-67
2022/01/02 02:25:16;;;;;;;18.25;4.50;;;;;;;;;;6273348;22;20043;-66
2022/01/02 02:27:51;;;;;;;15.50;4.55;;;;;;;;;;6272690;22;20004;-69
2022/01/02 02:30:17;;;;;;;21.10;5.10;;;;;;;;;;6272769;22;20007;-68
2022/01/02 02:32:43;;;;;;;14.80;4.85;;;;;;;;;;6274372;22;20027;-66
2022/01/02 02:35:09;;;;;;;17.02;5.90;;;;;;;;;;6272677;22;20074;-63
2022/01/02 02:37:40;;;;;;;11.90;3.70;;;;;;;;;;6273703;22;20004;-67
2022/01/02 02:40:07;;;;;;;13.40;5.13;;;;;;;;;;6273157;22;20008;-64
2022/01/02 02:42:45;;;;;;;11.70;3.97;;;;;;;;;;6274128;22;20127;-68
2022/01/02 02:50:47;;;;;;;14.75;5.65;;;;;;;;;;6272785;22;19914;-67
2022/01/02 02:53:14;;;;;;;10.68;4.18;;;;;;;;;;6274465;22;20006;-64
2022/01/02 02:55:45;;;;;;;16.52;3.90;;;;;;;;;;6272767;22;20004;-64
2022/01/02 02:58:44;;;;;;;16.05;3.88;;;;;;;;;;6274888;22;20007;-68
2022/01/02 03:01:03;;;;;;;14.95;4.68;;;;;;;;;;6267483;22;20381;-64
2022/01/02 03:03:31;;;;;;;17.88;3.95;;;;;;;;;;6273747;22;20006;-64
2022/01/02 03:05:57;;;;;;;12.35;3.45;;;;;;;;;;6273542;22;20042;-63
2022/01/02 03:08:23;;;;;;;18.23;4.65;;;;;;;;;;6273358;22;20083;-68
2022/01/02 03:10:49;;;;;;;7.90;3.33;;;;;;;;;;6273494;22;20010;-66
2022/01/02 03:13:15;;;;;;;14.70;3.55;;;;;;;;;;6274324;22;20008;-67
2022/01/02 03:15:41;;;;;;;12.60;4.30;;;;;;;;;;6272250;22;20011;-64
2022/01/02 03:18:07;;;;;;;16.30;3.85;;;;;;;;;;6274378;22;20038;-69
2022/01/02 03:20:33;;;;;;;12.50;3.13;;;;;;;;;;6273887;22;20039;-65
2022/01/02 03:23:00;;;;;;;9.77;3.95;;;;;;;;;;6273490;22;20027;-66
2022/01/02 03:25:26;;;;;;;9.80;3.10;;;;;;;;;;6273807;22;20003;-65
2022/01/02 03:27:52;;;;;;;9.95;3.58;;;;;;;;;;6273548;22;20010;-68
2022/01/02 03:30:18;;;;;;;8.70;3.70;;;;;;;;;;6273456;22;20061;-66
2022/01/02 03:32:44;;;;;;;12.27;2.95;;;;;;;;;;6273797;22;20004;-68
2022/01/02 03:35:10;;;;;;;10.30;3.33;;;;;;;;;;6274088;22;20004;-67
2022/01/02 03:37:36;;;;;;;17.05;3.83;;;;;;;;;;6272981;22;20004;-66
2022/01/02 03:40:04;;;;;;;8.07;2.67;;;;;;;;;;6271743;22;20054;-67
2022/01/02 03:42:30;;;;;;;10.48;3.15;;;;;;;;;;6273463;22;19995;-68
2022/01/02 03:44:59;;;;;;;9.05;3.20;;;;;;;;;;6272484;22;20284;-64
2022/01/02 03:47:25;;;;;;;8.25;3.40;;;;;;;;;;6273039;22;20008;-69
2022/01/02 03:49:51;;;;;;;11.55;2.67;;;;;;;;;;6274123;22;20000;-68
2022/01/02 03:52:17;;;;;;;15.82;3.75;;;;;;;;;;6272866;22;20031;-68
2022/01/02 03:54:43;;;;;;;14.52;3.13;;;;;;;;;;6273154;22;20011;-67
2022/01/02 03:57:10;;;;;;;8.73;2.95;;;;;;;;;;6272731;22;20427;-67
2022/01/02 03:59:36;;;;;;;9.20;4.18;;;;;;;;;;6273819;22;20012;-64
2022/01/02 04:02:02;;;;;;;9.00;2.78;;;;;;;;;;6273063;22;20069;-65
2022/01/02 04:04:28;;;;;;;8.23;3.35;;;;;;;;;;6273063;22;20026;-65
2022/01/02 04:06:55;;;;;;;10.50;4.22;;;;;;;;;;6272981;22;20004;-66
2022/01/02 04:09:21;;;;;;;11.88;3.85;;;;;;;;;;6272924;22;20006;-66
2022/01/02 04:11:47;;;;;;;14.80;4.80;;;;;;;;;;6273213;22;20010;-66
2022/01/02 04:14:13;;;;;;;14.10;4.00;;;;;;;;;;6272696;22;20000;-66
2022/01/02 04:16:39;;;;;;;8.43;2.83;;;;;;;;;;6272976;22;20053;-66
2022/01/02 04:19:05;;;;;;;15.52;3.80;;;;;;;;;;6272659;22;20003;-65
2022/01/02 04:21:32;;;;;;;5.65;2.50;;;;;;;;;;6273037;22;20004;-65
2022/01/02 04:23:58;;;;;;;9.13;2.50;;;;;;;;;;6272358;22;20015;-67
2022/01/02 04:26:24;;;;;;;7.57;2.90;;;;;;;;;;6272497;22;20079;-65
2022/01/02 04:28:50;;;;;;;10.93;3.05;;;;;;;;;;6272575;22;20014;-67
2022/01/02 04:31:16;;;;;;;12.35;3.83;;;;;;;;;;6273384;22;20007;-66
2022/01/02 04:33:42;;;;;;;11.13;2.40;;;;;;;;;;6274280;22;20000;-68
2022/01/02 04:36:08;;;;;;;19.45;3.60;;;;;;;;;;6273152;22;20542;-64
2022/01/02 04:38:36;;;;;;;10.15;2.80;;;;;;;;;;6274071;22;20011;-64
2022/01/02 04:41:02;;;;;;;12.85;3.75;;;;;;;;;;6273112;22;20003;-63
2022/01/02 04:43:28;;;;;;;9.27;2.97;;;;;;;;;;6275094;22;20447;-65
2022/01/02 04:45:56;;;;;;;11.02;2.72;;;;;;;;;;6272501;22;20057;-65
2022/01/02 04:48:22;;;;;;;7.47;3.03;;;;;;;;;;6274655;22;20000;-67
2022/01/02 04:50:48;;;;;;;12.55;3.65;;;;;;;;;;6273050;22;19999;-66
2022/01/02 04:53:15;;;;;;;14.52;2.75;;;;;;;;;;6272812;22;20133;-67
2022/01/02 04:55:41;;;;;;;11.82;3.58;;;;;;;;;;6271799;22;20057;-66
2022/01/02 04:58:07;;;;;;;11.80;3.22;;;;;;;;;;6273631;22;20007;-69
2022/01/02 05:00:33;;;;;;;17.33;3.95;;;;;;;;;;6273568;22;20007;-67
2022/01/02 05:02:59;;;;;;;11.73;3.10;;;;;;;;;;6273117;22;20157;-67
2022/01/02 05:05:25;;;;;;;11.98;3.40;;;;;;;;;;6273121;22;20061;-67
2022/01/02 05:07:51;;;;;;;15.30;3.70;;;;;;;;;;6273771;22;19996;-69
2022/01/02 05:10:17;;;;;;;8.18;3.28;;;;;;;;;;6275691;22;20007;-66
2022/01/02 05:12:43;;;;;;;10.20;2.92;;;;;;;;;;6275563;22;20003;-69
2022/01/02 05:15:10;;;;;;;6.10;2.83;;;;;;;;;;6275817;22;20011;-64
2022/01/02 05:17:36;;;;;;;15.80;3.35;;;;;;;;;;6273581;22;20007;-65
2022/01/02 05:20:03;;;;;;;11.07;3.20;;;;;;;;;;6275179;22;20015;-68
2022/01/02 05:22:29;;;;;;;9.77;2.65;;;;;;;;;;6275747;22;20482;-68
2022/01/02 05:24:55;;;;;;;11.30;3.45;;;;;;;;;;6275160;22;20083;-64
2022/01/02 05:27:21;;;;;;;8.73;2.90;;;;;;;;;;6273361;22;20099;-67
2022/01/02 05:29:48;;;;;;;12.35;3.10;;;;;;;;;;6274862;22;20506;-66
2022/01/02 05:32:14;;;;;;;10.65;2.97;;;;;;;;;;6275233;22;20000;-66
2022/01/02 05:34:40;;;;;;;12.50;2.67;;;;;;;;;;6275704;22;20015;-66
2022/01/02 05:37:06;;;;;;;11.10;3.47;;;;;;;;;;6274859;22;20074;-65
2022/01/02 05:39:32;;;;;;;11.18;4.40;;;;;;;;;;6275977;22;20008;-65
2022/01/02 05:41:58;;;;;;;9.18;3.65;;;;;;;;;;6276763;22;19996;-69
2022/01/02 05:44:24;;;;;;;11.65;3.53;;;;;;;;;;6275932;22;20575;-66
2022/01/02 05:46:50;;;;;;;9.82;2.85;;;;;;;;;;6275030;22;20000;-65
2022/01/02 05:49:16;;;;;;;7.50;2.60;;;;;;;;;;6275790;22;20145;-66
2022/01/02 05:51:42;;;;;;;12.18;2.95;;;;;;;;;;6274782;22;20010;-67
2022/01/02 05:54:09;;;;;;;12.25;2.95;;;;;;;;;;6276498;22;20007;-65
2022/01/02 05:56:35;;;;;;;12.98;3.67;;;;;;;;;;6275708;22;20006;-67
2022/01/02 05:59:01;;;;;;;10.98;3.00;;;;;;;;;;6276351;22;20086;-65
2022/01/02 06:01:27;;;;;;;8.85;2.78;;;;;;;;;;6274219;22;20004;-67
2022/01/02 06:03:53;;;;;;;7.13;2.88;;;;;;;;;;6274685;22;20000;-66
2022/01/02 06:06:19;;;;;;;12.15;3.13;;;;;;;;;;6275859;22;19996;-64
2022/01/02 06:08:45;;;;;;;12.70;3.30;;;;;;;;;;6276152;22;20023;-69
2022/01/02 06:11:12;;;;;;;10.07;3.08;;;;;;;;;;6275142;22;20052;-67
2022/01/02 06:13:40;;;;;;;8.75;2.80;;;;;;;;;;6274835;22;20378;-68
2022/01/02 06:16:06;;;;;;;11.82;2.80;;;;;;;;;;6274979;22;20003;-66
2022/01/02 06:18:32;;;;;;;10.45;2.97;;;;;;;;;;6274508;22;20533;-62
2022/01/02 06:20:58;;;;;;;6.28;2.70;;;;;;;;;;6276400;22;20083;-65
2022/01/02 06:23:24;;;;;;;9.57;2.92;;;;;;;;;;6275612;22;20015;-67
2022/01/02 06:25:50;;;;;;;8.18;3.30;;;;;;;;;;6275714;22;20063;-66
2022/01/02 06:28:16;;;;;;;18.20;3.17;;;;;;;;;;6275122;22;20010;-65
2022/01/02 06:30:42;;;;;;;9.95;2.50;;;;;;;;;;6276121;22;20004;-64
2022/01/02 06:33:09;;;;;;;5.55;2.67;;;;;;;;;;6273108;22;20011;-65
2022/01/02 06:35:35;;;;;;;12.10;3.38;;;;;;;;;;6275870;22;20331;-63
2022/01/02 06:38:10;;;;;;;8.70;2.22;;;;;;;;;;6275065;22;20004;-64
2022/01/02 06:40:36;;;;;;;10.05;2.90;;;;;;;;;;6276316;22;20008;-67
2022/01/02 06:43:02;;;;;;;10.73;2.60;;;;;;;;;;6275719;22;20058;-65
2022/01/02 06:45:29;;;;;;;12.25;2.55;;;;;;;;;;6274335;22;19999;-67
2022/01/02 06:47:55;;;;;;;12.75;3.05;;;;;;;;;;6275844;22;20091;-67
2022/01/02 06:50:21;;;;;;;7.28;2.80;;;;;;;;;;6274547;22;20003;-67
2022/01/02 06:52:47;;;;;;;8.82;2.25;;;;;;;;;;6274903;22;20426;-64
2022/01/02 06:55:14;;;;;;;11.15;3.75;;;;;;;;;;6273327;22;20003;-67
2022/01/02 06:57:40;;;;;;;9.77;2.88;;;;;;;;;;6275321;22;20003;-64
2022/01/02 07:00:06;;;;;;;9.55;2.80;;;;;;;;;;6273719;22;20004;-68
2022/01/02 07:02:33;;;;;;;6.85;3.28;;;;;;;;;;6275888;22;20019;-65
2022/01/02 07:04:59;;;;;;;11.00;3.00;;;;;;;;;;6272394;22;19999;-67
2022/01/02 07:07:25;;;;;;;7.10;2.30;;;;;;;;;;6274798;22;20003;-69
2022/01/02 07:09:51;;;;;;;12.70;2.88;;;;;;;;;;6271888;22;20015;-68
2022/01/02 07:12:17;;;;;;;13.50;2.25;;;;;;;;;;6274846;22;20010;-67
2022/01/02 07:14:43;;;;;;;7.13;3.35;;;;;;;;;;6274193;22;20453;-68
2022/01/02 07:17:09;;;;;;;6.68;2.42;;;;;;;;;;6272833;22;20050;-65
2022/01/02 07:19:36;;;;;;;9.02;2.80;;;;;;;;;;6275229;22;20003;-67
2022/01/02 07:22:02;;;;;;;13.45;2.90;;;;;;;;;;6274428;22;20030;-65
2022/01/02 07:24:28;;;;;;;10.73;2.47;;;;;;;;;;6275477;22;20018;-68
2022/01/02 07:26:54;;;;;;;8.38;2.17;;;;;;;;;;6273396;22;20949;-63
2022/01/02 07:29:20;;;;;;;11.30;2.40;;;;;;;;;;6275442;22;20007;-67
2022/01/02 07:31:46;;;;;;;9.05;2.42;;;;;;;;;;6273334;22;20082;-66
2022/01/02 07:34:12;;;;;;;10.20;2.40;;;;;;;;;;6275578;22;20253;-65
2022/01/02 07:36:43;;;;;;;7.05;2.15;;;;;;;;;;6274625;22;20039;-67
2022/01/02 07:39:09;;;;;;;7.10;2.38;;;;;;;;;;6275284;22;20390;-65
2022/01/02 07:41:35;;;;;;;9.27;2.65;;;;;;;;;;6272849;22;20023;-65
2022/01/02 07:44:03;;;;;;;9.75;3.58;;;;;;;;;;6272371;22;20003;-65
2022/01/02 07:46:30;;;;;;;10.70;2.50;;;;;;;;;;6273377;22;20397;-67
2022/01/02 07:48:56;;;;;;;9.43;3.88;;;;;;;;;;6274074;22;20004;-63
2022/01/02 07:51:22;;;;;;;9.63;3.75;;;;;;;;;;6274351;22;20003;-70
2022/01/02 07:53:48;;;;;;;8.23;2.35;;;;;;;;;;6272513;22;20004;-66
2022/01/02 07:56:15;;;;;;;9.52;3.03;;;;;;;;;;6274163;22;20004;-68
2022/01/02 07:58:41;;;;;;;12.20;2.88;;;;;;;;;;6274063;22;20039;-65
2022/01/02 08:01:07;;;;;;;5.55;2.45;;;;;;;;;;6274995;22;20369;-68
2022/01/02 08:03:33;;;;;;;10.23;3.38;;;;;;;;;;6274255;22;20004;-66
2022/01/02 08:05:59;;;;;;;7.97;2.90;;;;;;;;;;6274210;22;20532;-65
2022/01/02 08:08:25;;;;;;;9.55;2.78;;;;;;;;;;6273757;22;20066;-65
2022/01/02 08:10:51;;;;;;;8.35;2.50;;;;;;;;;;6275015;22;20026;-67
2022/01/02 08:13:17;;;;;;;10.05;2.63;;;;;;;;;;6274190;22;20027;-67
2022/01/02 08:15:44;;;;;;;7.03;2.88;;;;;;;;;;6273779;22;20026;-66
2022/01/02 08:18:13;;;;;;;6.97;2.35;;;;;;;;;;6274419;22;20606;-63
2022/01/02 08:20:40;;;;;;;13.73;3.33;;;;;;;;;;6274039;22;20030;-68
2022/01/02 08:23:06;;;;;;;6.50;2.40;;;;;;;;;;6273565;22;20162;-63
2022/01/02 08:25:32;;;;;;;8.48;2.35;;;;;;;;;;6274385;22;20024;-65
2022/01/02 08:27:58;;;;;;;13.60;2.92;;;;;;;;;;6274911;22;20004;-65
2022/01/02 08:30:24;;;;;;;6.45;2.03;;;;;;;;;;6273811;22;20054;-65
2022/01/02 08:32:50;;;;;;;6.20;2.90;;;;;;;;;;6273425;22;20522;-63
2022/01/02 08:35:16;;;;;;;10.93;2.63;;;;;;;;;;6273131;22;20011;-65
2022/01/02 08:37:42;;;;;;;14.50;3.15;;;;;;;;;;6270950;22;20004;-66
2022/01/02 08:40:09;;;;;;;5.90;2.08;;;;;;;;;;6274053;22;20457;-65
2022/01/02 08:42:35;;;;;;;7.05;2.42;;;;;;;;;;6274682;22;20311;-65
2022/01/02 08:45:01;;;;;;;10.18;2.50;;;;;;;;;;6274538;22;20057;-64
2022/01/02 08:47:28;;;;;;;11.98;2.83;;;;;;;;;;6273957;22;20044;-65
2022/01/02 08:49:54;;;;;;;6.95;2.38;;;;;;;;;;6275045;22;20083;-66
2022/01/02 08:52:20;;;;;;;8.63;2.85;;;;;;;;;;6275265;22;19999;-68
2022/01/02 08:54:46;;;;;;;10.27;3.05;;;;;;;;;;6275220;22;20046;-67
2022/01/02 08:57:12;;;;;;;10.32;2.80;;;;;;;;;;6274799;22;20203;-66
2022/01/02 08:59:38;;;;;;;5.18;4.05;;;;;;;;;;6273585;22;19999;-66
2022/01/02 09:02:04;;;;;;;12.95;3.25;;;;;;;;;;6276676;22;20007;-66
2022/01/02 09:04:31;;;;;;;14.98;3.88;;;;;;;;;;6275510;22;20023;-65
2022/01/02 09:06:57;;;;;;;7.45;2.20;;;;;;;;;;6273847;22;20004;-65
2022/01/02 09:09:24;;;;;;;9.93;2.60;;;;;;;;;;6273371;22;20438;-67
2022/01/02 09:11:50;;;;;;;4.35;2.33;;;;;;;;;;6273663;22;20003;-66
2022/01/02 09:14:16;;;;;;;13.48;3.70;;;;;;;;;;6273248;22;20054;-65
2022/01/02 09:16:44;;;;;;;12.23;3.45;;;;;;;;;;6274298;22;20011;-68
2022/01/02 09:19:11;;;;;;;11.82;3.00;;;;;;;;;;6272814;22;20083;-65
2022/01/02 09:21:37;;;;;;;5.72;2.30;;;;;;;;;;6274659;22;20011;-67
2022/01/02 09:24:04;;;;;;;10.43;4.10;;;;;;;;;;6270074;22;20019;-66
2022/01/02 09:26:30;;;;;;;5.30;2.50;;;;;;;;;;6272579;22;19996;-66
2022/01/02 09:28:56;;;;;;;7.30;2.90;;;;;;;;;;6274508;22;20431;-66
2022/01/02 09:31:23;;;;;;;7.72;2.40;;;;;;;;;;6274235;22;20008;-65
2022/01/02 09:33:49;;;;;;;12.35;2.95;;;;;;;;;;6274090;22;20003;-66
2022/01/02 09:36:15;;;;;;;8.88;2.40;;;;;;;;;;6272943;22;19999;-69
2022/01/02 09:38:42;;;;;;;8.10;2.97;;;;;;;;;;6275166;22;20000;-63
2022/01/02 09:41:08;;;;;;;7.43;3.20;;;;;;;;;;6274797;22;20003;-67
2022/01/02 09:43:34;;;;;;;7.53;2.80;;;;;;;;;;6275243;22;20063;-68
2022/01/02 09:46:02;;;;;;;15.50;3.03;;;;;;;;;;6274101;22;20568;-68
2022/01/02 09:48:28;;;;;;;8.60;2.60;;;;;;;;;;6273521;22;20057;-66
2022/01/02 09:50:55;;;;;;;9.30;2.25;;;;;;;;;;6275040;22;20028;-66
2022/01/02 09:53:21;;;;;;;12.20;2.72;;;;;;;;;;6275209;22;19999;-67
2022/01/02 09:55:47;;;;;;;15.75;2.65;;;;;;;;;;6276123;22;20031;-67
2022/01/02 09:58:14;;;;;;;10.60;3.15;;;;;;;;;;6276283;22;20008;-66
2022/01/02 10:00:40;;;;;;;13.30;2.60;;;;;;;;;;6276244;22;20010;-66
2022/01/02 10:03:08;;;;;;;11.13;2.65;;;;;;;;;;6276024;22;20003;-68
2022/01/02 10:05:53;;;;;;;6.68;2.30;;;;;;;;;;6276253;22;19996;-67
2022/01/02 10:08:26;;;;;;;17.75;3.78;;;;;;;;;;6276520;22;20003;-65
2022/01/02 10:11:01;;;;;;;9.80;2.95;;;;;;;;;;6275466;22;20446;-67
2022/01/02 10:13:56;;;;;;;11.27;2.60;;;;;;;;;;6276886;22;20385;-67
2022/01/02 10:16:31;;;;;;;9.02;2.88;;;;;;;;;;6256825;22;20012;-68
2022/01/02 10:18:58;;;;;;;5.57;2.65;;;;;;;;;;6275798;22;20036;-65
2022/01/02 10:21:27;;;;;;;9.05;3.10;;;;;;;;;;6275257;22;20004;-68
2022/01/02 10:24:12;;;;;;;9.35;3.55;;;;;;;;;;6274188;22;20051;-66
2022/01/02 10:26:38;;;;;;;11.13;2.30;;;;;;;;;;6269240;22;20548;-63
2022/01/02 10:29:11;;;;;;;5.78;2.15;;;;;;;;;;6273508;22;20018;-67
2022/01/02 10:31:38;;;;;;;8.98;2.60;;;;;;;;;;6270943;22;20038;-65
2022/01/02 10:34:04;;;;;;;6.78;2.40;;;;;;;;;;6272633;22;20014;-65
2022/01/02 10:36:32;;;;;;;7.22;3.15;;;;;;;;;;6269262;22;20032;-66
2022/01/02 10:39:15;;;;;;;5.47;2.13;;;;;;;;;;6269812;22;20018;-66
2022/01/02 10:41:42;;;;;;;8.68;2.20;;;;;;;;;;6272699;22;20562;-67
2022/01/02 10:44:29;;;;;;;8.27;2.47;;;;;;;;;;6270188;22;20333;-63
2022/01/02 10:47:15;;;;;;;4.32;1.75;;;;;;;;;;6272065;22;20011;-64
2022/01/02 10:49:48;;;;;;;3.80;2.03;;;;;;;;;;6273926;22;20075;-66
2022/01/02 10:52:23;;;;;;;2.85;1.88;;;;;;;;;;6271949;22;20173;-68
2022/01/02 10:54:49;;;;;;;5.18;2.40;;;;;;;;;;6271172;22;20011;-63
2022/01/02 10:57:16;;;;;;;4.10;1.83;;;;;;;;;;6271907;22;20007;-63
2022/01/02 10:59:43;;;;;;;9.88;3.47;;;;;;;;;;6273429;22;19999;-67
2022/01/02 11:02:11;;;;;;;4.43;2.20;;;;;;;;;;6273007;22;20003;-68
2022/01/02 11:04:37;;;;;;;4.90;2.10;;;;;;;;;;6271620;22;20498;-69
2022/01/02 11:07:05;;;;;;;4.47;1.77;;;;;;;;;;6266842;22;20398;-64
2022/01/02 11:09:32;;;;;;;5.28;2.35;;;;;;;;;;6270856;22;20058;-68
2022/01/02 11:11:58;;;;;;;2.30;1.90;;;;;;;;;;6269981;22;20074;-65
2022/01/02 11:14:24;;;;;;;4.95;2.10;;;;;;;;;;6271080;22;20004;-67
2022/01/02 11:16:50;;;;;;;4.25;1.88;;;;;;;;;;6269857;22;20442;-67
2022/01/02 11:19:17;;;;;;;2.97;2.03;;;;;;;;;;6268955;22;20057;-68
2022/01/02 11:21:45;;;;;;;4.63;1.75;;;;;;;;;;6272660;22;20007;-64
2022/01/02 11:24:18;;;;;;;9.20;2.30;;;;;;;;;;6272611;22;20442;-65
2022/01/02 11:26:48;;;;;;;3.10;1.65;;;;;;;;;;6269999;22;20125;-65
2022/01/02 11:29:15;;;;;;;6.22;2.20;;;;;;;;;;6268927;22;20013;-65
2022/01/02 11:31:46;;;;;;;2.95;1.80;;;;;;;;;;6269814;22;20166;-67
2022/01/02 11:34:21;;;;;;;3.25;1.75;;;;;;;;;;6269871;22;20254;-65
2022/01/02 11:36:48;;;;;;;3.83;2.00;;;;;;;;;;6269175;22;20715;-65
2022/01/02 11:39:14;;;;;;;7.65;1.85;;;;;;;;;;6269954;22;20050;-66
2022/01/02 11:41:40;;;;;;;6.43;1.73;;;;;;;;;;6267385;22;20007;-65
2022/01/02 11:44:08;;;;;;;2.83;1.63;;;;;;;;;;6270764;22;20026;-67
2022/01/02 11:46:52;;;;;;;3.58;1.77;;;;;;;;;;6270892;22;20027;-66
2022/01/02 11:49:19;;;;;;;3.40;1.92;;;;;;;;;;6269484;22;20466;-65
2022/01/02 11:51:51;;;;;;;6.15;2.00;;;;;;;;;;6271564;22;20004;-66
2022/01/02 11:54:35;;;;;;;4.28;2.10;;;;;;;;;;6274435;22;20064;-62
2022/01/02 11:57:18;;;;;;;2.60;1.80;;;;;;;;;;6262298;22;20068;-65
2022/01/02 11:59:47;;;;;;;2.88;1.75;;;;;;;;;;6270481;22;20015;-65
2022/01/02 12:02:19;;;;;;;4.55;2.38;;;;;;;;;;6268854;22;19999;-64
2022/01/02 12:07:35;;;;;;;2.95;2.35;;;;;;;;;;6272108;22;20094;-64
2022/01/02 12:10:17;;;;;;;6.35;3.78;;;;;;;;;;6269450;22;20008;-67
2022/01/02 12:12:58;;;;;;;6.18;2.80;;;;;;;;;;6269278;22;20007;-63
2022/01/02 12:15:25;;;;;;;3.28;2.03;;;;;;;;;;6270927;22;20056;-67
2022/01/02 12:18:11;;;;;;;5.13;1.95;;;;;;;;;;6270452;22;20004;-65
2022/01/02 12:21:01;;;;;;;6.80;2.40;;;;;;;;;;6254395;22;20085;-67
2022/01/02 12:26:01;;;;;;;3.65;2.00;;;;;;;;;;6270198;22;20007;-66
2022/01/02 12:28:29;;;;;;;2.58;1.90;;;;;;;;;;6271819;22;20014;-64
2022/01/02 12:30:56;;;;;;;3.30;1.63;;;;;;;;;;6270496;22;20004;-68
2022/01/02 12:33:26;;;;;;;3.53;1.80;;;;;;;;;;6270602;22;20065;-70
2022/01/02 12:35:52;;;;;;;3.28;1.90;;;;;;;;;;6269015;22;20308;-69
2022/01/02 12:38:18;;;;;;;2.97;1.70;;;;;;;;;;6269812;22;20008;-67
2022/01/02 12:40:46;;;;;;;4.05;1.98;;;;;;;;;;6269365;22;20003;-67
2022/01/02 12:43:12;;;;;;;4.03;2.20;;;;;;;;;;6267602;22;20004;-63
2022/01/02 12:45:38;;;;;;;3.42;1.90;;;;;;;;;;6269236;22;20007;-66
2022/01/02 12:48:04;;;;;;;4.97;1.90;;;;;;;;;;6269079;22;20028;-64
2022/01/02 12:50:32;;;;;;;3.20;2.40;;;;;;;;;;6269345;22;20014;-68
2022/01/02 12:52:59;;;;;;;2.50;1.65;;;;;;;;;;6269195;22;20007;-69
2022/01/02 12:55:26;;;;;;;3.53;1.90;;;;;;;;;;6268442;22;20007;-69
2022/01/02 12:58:02;;;;;;;5.05;2.05;;;;;;;;;;6270306;22;20003;-67
2022/01/02 13:00:28;;;;;;;5.20;1.73;;;;;;;;;;6273564;22;20014;-65
2022/01/02 13:02:55;;;;;;;3.63;2.38;;;;;;;;;;6269563;22;20053;-68
2022/01/02 13:05:21;;;;;;;5.38;2.72;;;;;;;;;;6270675;22;20408;-67
2022/01/02 13:07:47;;;;;;;5.65;2.47;;;;;;;;;;6269922;22;20008;-65
2022/01/02 13:10:13;;;;;;;4.90;2.13;;;;;;;;;;6269639;22;20011;-66
2022/01/02 13:12:40;;;;;;;3.55;2.17;;;;;;;;;;6269354;22;20381;-67
2022/01/02 13:15:06;;;;;;;7.57;2.28;;;;;;;;;;6269703;22;20007;-68
2022/01/02 13:17:34;;;;;;;4.70;1.95;;;;;;;;;;6268662;22;20015;-68
2022/01/02 13:20:07;;;;;;;3.95;2.75;;;;;;;;;;6268709;22;20007;-69
2022/01/02 13:22:34;;;;;;;7.43;2.95;;;;;;;;;;6268857;22;20509;-69
2022/01/02 13:25:12;;;;;;;5.72;2.28;;;;;;;;;;6268952;22;20034;-64
2022/01/02 13:27:57;;;;;;;7.88;2.10;;;;;;;;;;6269133;22;20003;-68
2022/01/02 13:30:25;;;;;;;5.28;2.30;;;;;;;;;;6272664;22;20007;-66
2022/01/02 13:32:51;;;;;;;4.80;2.65;;;;;;;;;;6271332;22;20011;-67
2022/01/02 13:35:21;;;;;;;5.68;2.47;;;;;;;;;;6271584;22;20013;-65
2022/01/02 13:37:51;;;;;;;4.90;2.60;;;;;;;;;;6270891;22;20060;-68
2022/01/02 13:40:17;;;;;;;4.55;2.30;;;;;;;;;;6271939;22;20008;-64
2022/01/02 13:42:44;;;;;;;6.38;2.53;;;;;;;;;;6273261;22;20004;-67
2022/01/02 13:45:12;;;;;;;8.13;2.38;;;;;;;;;;6272083;22;20010;-70
2022/01/02 13:47:38;;;;;;;5.38;3.35;;;;;;;;;;6271334;22;20495;-66
2022/01/02 13:50:05;;;;;;;6.78;2.63;;;;;;;;;;6271475;22;20015;-68
2022/01/02 13:52:31;;;;;;;7.57;2.47;;;;;;;;;;6271608;22;20395;-69
2022/01/02 13:55:08;;;;;;;5.78;2.38;;;;;;;;;;6271728;22;20034;-67
2022/01/02 13:57:34;;;;;;;4.05;1.88;;;;;;;;;;6272393;22;20003;-66
2022/01/02 14:00:19;;;;;;;6.10;2.17;;;;;;;;;;6270187;22;20003;-69
2022/01/02 14:02:51;;;;;;;11.73;3.20;;;;;;;;;;6269972;22;20000;-66
2022/01/02 14:05:17;;;;;;;8.02;2.60;;;;;;;;;;6271436;22;20442;-69
2022/01/02 14:07:43;;;;;;;7.30;2.70;;;;;;;;;;6271769;22;20004;-65
2022/01/02 14:10:09;;;;;;;6.90;2.55;;;;;;;;;;6274763;22;20014;-67
2022/01/02 14:12:36;;;;;;;10.13;2.30;;;;;;;;;;6274112;22;20008;-67
2022/01/02 14:15:16;;;;;;;7.00;2.47;;;;;;;;;;6273341;22;20011;-64
2022/01/02 14:17:49;;;;;;;6.28;2.45;;;;;;;;;;6272416;22;20743;-66
2022/01/02 14:20:19;;;;;;;6.35;2.88;;;;;;;;;;6268372;22;20468;-69
2022/01/02 14:22:46;;;;;;;10.32;3.10;;;;;;;;;;6270068;22;20592;-66
2022/01/02 14:25:14;;;;;;;7.47;2.58;;;;;;;;;;6268481;22;20016;-66
2022/01/02 14:27:44;;;;;;;10.95;3.60;;;;;;;;;;6265645;22;20030;-66
2022/01/02 14:30:10;;;;;;;6.05;3.40;;;;;;;;;;6267698;22;20010;-63
2022/01/02 14:32:36;;;;;;;7.03;3.78;;;;;;;;;;6268992;22;20015;-64
2022/01/02 14:35:03;;;;;;;8.65;3.22;;;;;;;;;;6268677;22;20476;-66
2022/01/02 14:37:30;;;;;;;8.20;4.53;;;;;;;;;;6268383;22;20061;-65
2022/01/02 14:39:56;;;;;;;8.63;3.13;;;;;;;;;;6269176;22;20007;-66
2022/01/02 14:42:22;;;;;;;4.97;2.38;;;;;;;;;;6266828;22;20000;-68
2022/01/02 14:44:49;;;;;;;6.38;3.25;;;;;;;;;;6269857;22;20334;-66
2022/01/02 14:47:15;;;;;;;6.68;2.97;;;;;;;;;;6269794;22;20659;-67
2022/01/02 14:49:41;;;;;;;6.22;2.63;;;;;;;;;;6269924;22;20058;-67
2022/01/02 14:52:07;;;;;;;8.50;2.97;;;;;;;;;;6270363;22;20010;-66